Latest Coastal Weather Observations for Orbost

IDV60701

Issued at 4:41 pm EDT Monday 30 March 2015 (issued every 10 minutes, with the page automatically refreshed every 10 minutes)

About coastal observations | Map of coastal stations | Coastal observations for VIC | Marine services | Other Formats
Station Details ID: 084145 Name: ORBOST Lat: -37.69 Lon: 148.47 Height: 62.65 m
Data from the previous 72 hours. | See also: Recent months at Orbost
Date/Time
EDT
Temp

°C
Wind Pressure Rain
since 9am
mm
Weather Cloud Vis
km
Sea
Height
m
Swell
Dir
 
Speed
knots
Gust
knots
hPa Trend Height
m
Period
s
Dir
30/04:30pm 20.3 SSE 6 9 1023.1 - 0.0 - - - - - - -
30/04:00pm 20.5 S 6 9 1023.1 - 0.0 - - - - - - -
30/03:30pm 21.0 SSE 6 11 1023.0 - 0.0 - - - - - - -
30/03:00pm 22.0 SSE 6 9 1022.6 - 0.0 - - - - - - -
30/02:30pm 22.4 SSE 7 10 1022.7 - 0.0 - - - - - - -
30/02:00pm 23.5 S 4 6 1022.8 - 0.0 - - - - - - -
30/01:30pm 22.9 SSW 3 7 1023.1 - 0.0 - - - - - - -
30/01:00pm 23.0 NNE 3 5 1023.5 - 0.0 - - - - - - -
30/12:30pm 21.3 SSW 3 5 1023.9 - 0.0 - - - - - - -
30/12:00pm 20.8 SSW 3 7 1024.2 - 0.0 - - - - - - -
30/11:30am 20.2 SSW 2 4 1024.4 - 0.0 - - - - - - -
30/11:00am 19.2 SSW 2 6 1024.8 - 0.0 - - - - - - -
30/10:30am 17.5 WSW 2 3 1024.9 - 0.0 - - - - - - -
30/10:00am 16.1 WNW 2 3 1024.8 - 0.0 - - - - - - -
30/09:30am 14.3 CALM 0 0 1024.8 - 0.0 - - - - - - -
30/09:00am 11.6 CALM 0 1 1024.5 - 0.0 - - - - - - -
30/08:30am 10.9 CALM 0 0 1024.4 - 0.0 - - - - - - -
30/08:00am 9.9 CALM 0 0 1024.1 - 0.0 - - - - - - -
30/07:30am 9.1 CALM 0 0 1023.8 - 0.0 - - - - - - -
30/07:00am 9.4 CALM 0 0 1023.6 - 0.0 - - - - - - -
30/06:30am 9.3 CALM 0 0 1023.3 - 0.0 - - - - - - -
30/06:00am 9.7 CALM 0 0 1023.2 - 0.0 - - - - - - -
30/05:30am 9.4 CALM 0 0 1022.8 - 0.0 - - - - - - -
30/05:00am 9.7 CALM 0 0 1022.9 - 0.0 - - - - - - -
30/04:30am 9.5 CALM 0 0 1023.0 - 0.0 - - - - - - -
30/04:00am 10.1 CALM 0 0 1023.0 - 0.0 - - - - - - -
30/03:30am 10.4 CALM 0 0 1023.2 - 0.0 - - - - - - -
30/03:00am 10.5 CALM 0 0 1023.4 - 0.0 - - - - - - -
30/02:30am 10.4 N 1 2 1023.6 - 0.0 - - - - - - -
30/02:00am 10.4 N 2 2 1023.8 - 0.0 - - - - - - -
30/01:30am 10.4 CALM 0 0 1023.8 - 0.0 - - - - - - -
30/01:00am 10.8 N 2 3 1023.8 - 0.0 - - - - - - -
30/12:30am 11.0 N 2 3 1023.9 - 0.0 - - - - - - -
30/12:00am 11.8 N 2 3 1024.1 - 0.0 - - - - - - -
 
Date/Time
EDT
Temp

°C
Wind Pressure Rain
since 9am
mm
Weather Cloud Vis
km
Sea
Height
m
Swell
Dir
 
Speed
knots
Gust
knots
hPa Trend Height
m
Period
s
Dir
29/11:30pm 11.7 N 2 2 1024.3 - 0.0 - - - - - - -
29/11:00pm 11.9 N 3 3 1024.2 - 0.0 - - - - - - -
29/10:30pm 12.2 NNE 1 2 1024.5 - 0.0 - - - - - - -
29/10:00pm 12.4 NE 1 2 1024.4 - 0.0 - - - - - - -
29/09:30pm 12.7 CALM 0 0 1024.1 - 0.0 - - - - - - -
29/09:00pm 13.5 CALM 0 1 1023.7 - 0.0 - - - - - - -
29/08:30pm 14.3 CALM 0 0 1023.2 - 0.0 - - - - - - -
29/08:00pm 14.5 ESE 1 2 1022.7 - 0.0 - - - - - - -
29/07:30pm 15.4 ESE 2 2 1022.2 - 0.0 - - - - - - -
29/07:00pm 16.3 ESE 2 2 1021.7 - 0.0 - - - - - - -
29/06:30pm 17.4 SSE 3 7 1021.3 - 0.0 - - - - - - -
29/06:00pm 18.7 S 5 8 1021.0 - 0.0 - - - - - - -
29/05:30pm 19.7 SSE 4 7 1020.6 - 0.0 - - - - - - -
29/05:00pm 20.1 SE 5 7 1020.5 - 0.0 - - - - - - -
29/04:30pm 20.7 SE 5 8 1020.5 - 0.0 - - - - - - -
29/04:00pm 21.8 SSE 5 9 1020.4 - 0.0 - - - - - - -
29/03:30pm 21.4 SSE 6 9 1020.6 - 0.0 - - - - - - -
29/03:00pm 21.6 SSE 6 10 1020.7 - 0.0 - - - - - - -
29/02:30pm 22.1 SSE 5 9 1020.8 - 0.0 - - - - - - -
29/02:00pm 22.3 SW 4 8 1021.0 - 0.0 - - - - - - -
29/01:30pm 22.2 W 4 9 1021.4 - 0.0 - - - - - - -
29/01:00pm 21.1 W 5 9 1021.9 - 0.0 - - - - - - -
29/12:30pm 21.4 NW 3 6 1022.1 - 0.0 - - - - - - -
29/12:00pm 20.3 W 4 6 1022.6 - 0.0 - - - - - - -
29/11:30am 19.2 WNW 4 6 1022.9 - 0.0 - - - - - - -
29/11:00am 18.1 WNW 3 4 1022.9 - 0.0 - - - - - - -
29/10:30am 16.5 WNW 2 4 1023.3 - 0.0 - - - - - - -
29/10:00am 14.8 WNW 2 3 1023.4 - 0.0 - - - - - - -
29/09:30am 13.3 NNW 1 2 1023.4 - 0.0 - - - - - - -
29/09:00am 11.1 NNW 2 2 1023.2 - 0.2 Recent precip. - - - - - -
29/08:30am 9.2 CALM 0 0 1022.9 - 0.2 - - - - - - -
29/08:00am 8.8 CALM 0 1 1022.2 - 0.0 - - - - - - -
29/07:30am 7.8 CALM 0 2 1021.8 - 0.0 - - - - - - -
29/07:00am 8.5 NNW 1 2 1021.6 - 0.0 - - - - - - -
29/06:30am 8.2 NNW 1 2 1021.2 - 0.0 - - - - - - -
29/06:00am 8.5 NW 1 2 1020.8 - 0.0 - - - - - - -
29/05:30am 8.2 CALM 0 0 1020.7 - 0.0 - - - - - - -
29/05:00am 8.0 CALM 0 0 1020.7 - 0.0 - - - - - - -
29/04:30am 8.4 CALM 0 0 1020.7 - 0.0 - - - - - - -
29/04:00am 8.6 N 2 3 1020.7 - 0.0 - - - - - - -
29/03:30am 8.6 NW 2 3 1020.9 - 0.0 - - - - - - -
29/03:00am 9.0 CALM 0 0 1021.1 - 0.0 - - - - - - -
29/02:30am 9.2 CALM 0 0 1021.3 - 0.0 - - - - - - -
29/02:00am 9.5 CALM 0 0 1021.6 - 0.0 - - - - - - -
29/01:30am 9.6 CALM 0 0 1021.9 - 0.0 - - - - - - -
29/01:00am 9.8 CALM 0 0 1022.2 - 0.0 - - - - - - -
29/12:30am 9.5 CALM 0 1 1022.2 - 0.0 - - - - - - -
29/12:00am 10.0 CALM 0 0 1022.5 - 0.0 - - - - - - -
 
Date/Time
EDT
Temp

°C
Wind Pressure Rain
since 9am
mm
Weather Cloud Vis
km
Sea
Height
m
Swell
Dir
 
Speed
knots
Gust
knots
hPa Trend Height
m
Period
s
Dir
28/11:30pm 9.8 CALM 0 1 1022.8 - 0.0 - - - - - - -
28/11:00pm 11.0 NE 3 4 1022.9 - 0.0 - - - - - - -
28/10:30pm 11.1 NE 2 4 1023.2 - 0.0 - - - - - - -
28/10:00pm 10.5 ENE 1 2 1023.3 - 0.0 - - - - - - -
28/09:30pm 11.8 NE 2 3 1023.4 - 0.0 - - - - - - -
28/09:00pm 11.9 NE 3 3 1023.1 - 0.0 - - - - - - -
28/08:30pm 12.2 NE 2 3 1022.9 - 0.0 - - - - - - -
28/08:00pm 12.7 ENE 2 3 1022.7 - 0.0 - - - - - - -
28/07:30pm 13.1 E 1 2 1022.5 - 0.0 - - - - - - -
28/07:00pm 15.2 SSE 1 2 1022.6 - 0.0 - - - - - - -
28/06:30pm 16.1 SSE 3 5 1022.3 - 0.0 - - - - - - -
28/06:00pm 16.8 S 5 7 1022.3 - 0.0 - - - - - - -
28/05:30pm 17.4 S 5 8 1022.2 - 0.0 - - - - - - -
28/05:00pm 17.8 S 5 9 1022.0 - 0.0 - - - - - - -
28/04:30pm 18.2 SSW 7 10 1022.3 - 0.0 - - - - - - -
28/04:00pm 18.5 SSW 8 12 1022.4 - 0.0 - - - - - - -
28/03:30pm 18.8 SW 6 11 1022.3 - 0.0 - - - - - - -
28/03:00pm 19.1 SW 6 10 1022.7 - 0.0 - - - - - - -
28/02:30pm 19.4 WSW 6 11 1022.9 - 0.0 - - - - - - -
28/02:00pm 19.3 SW 6 11 1023.3 - 0.0 - - - - - - -
28/01:30pm 17.9 SW 5 9 1023.5 - 0.0 - - - - - - -
28/01:00pm 17.6 WSW 4 8 1023.8 - 0.0 - - - - - - -
28/12:30pm 16.8 WSW 7 10 1024.3 - 0.0 - - - - - - -
28/12:00pm 17.2 W 5 8 1024.7 - 0.0 - - - - - - -
28/11:30am 16.8 WNW 7 11 1024.8 - 0.0 - - - - - - -
28/11:00am 17.1 W 7 13 1024.8 - 0.0 - - - - - - -
28/10:30am 17.1 W 8 12 1024.8 - 0.0 - - - - - - -
28/10:00am 16.3 W 7 12 1024.9 - 0.0 - - - - - - -
28/09:30am 15.4 WNW 6 10 1024.8 - 0.0 - - - - - - -
28/09:00am 14.2 NW 5 8 1024.6 - 0.0 - - - - - - -
28/08:30am 13.2 NW 5 9 1024.4 - 0.0 - - - - - - -
28/08:00am 12.1 NNW 5 9 1024.2 - 0.0 - - - - - - -
28/07:30am 11.7 NW 5 9 1023.9 - 0.0 - - - - - - -
28/07:00am 12.6 NW 6 9 1023.7 - 0.0 - - - - - - -
28/06:30am 12.8 WNW 6 10 1023.4 - 0.0 - - - - - - -
28/06:00am 12.7 WNW 6 12 1023.2 - 0.0 - - - - - - -
28/05:30am 12.7 WNW 7 13 1022.7 - 0.0 - - - - - - -
28/05:00am 12.3 WNW 7 11 1022.6 - 0.0 - - - - - - -
28/04:30am 12.7 WNW 7 11 1022.6 - 0.0 - - - - - - -
28/04:00am 13.0 WNW 7 12 1022.5 - 0.0 - - - - - - -
28/03:30am 13.1 NW 6 9 1022.5 - 0.0 - - - - - - -
28/03:00am 13.2 WNW 7 10 1022.7 - 0.0 - - - - - - -
28/02:30am 13.1 WNW 6 10 1022.7 - 0.0 - - - - - - -
28/02:00am 13.2 WNW 6 9 1022.6 - 0.0 - - - - - - -
28/01:30am 13.1 W 8 13 1022.5 - 0.0 - - - - - - -
28/01:00am 13.3 W 8 15 1022.4 - 0.0 - - - - - - -
28/12:30am 13.2 WNW 8 12 1022.3 - 0.0 - - - - - - -
28/12:00am 13.3 W 8 15 1022.4 - 0.0 - - - - - - -
 
Date/Time
EDT
Temp

°C
Wind Pressure Rain
since 9am
mm
Weather Cloud Vis
km
Sea
Height
m
Swell
Dir
 
Speed
knots
Gust
knots
hPa Trend Height
m
Period
s
Dir
27/11:30pm 13.4 W 8 14 1022.2 - 0.0 - - - - - - -
27/11:00pm 13.3 W 9 13 1022.2 - 0.0 - - - - - - -
27/10:30pm 13.4 WNW 8 13 1022.1 - 0.0 - - - - - - -
27/10:00pm 13.4 W 7 11 1021.9 - 0.0 - - - - - - -
27/09:30pm 13.4 WNW 7 14 1021.8 - 0.0 - - - - - - -
27/09:00pm 13.9 W 9 19 1021.6 - 0.0 - - - - - - -
27/08:30pm 14.2 W 10 18 1021.2 - 0.0 - - - - - - -
27/08:00pm 14.8 W 10 17 1020.8 - 0.0 - - - - - - -
27/07:30pm 15.0 W 10 18 1020.3 - 0.0 - - - - - - -
27/07:00pm 15.6 W 11 23 1020.0 - 0.0 - - - - - - -
27/06:30pm 16.1 W 14 25 1019.4 - 0.0 - - - - - - -
27/06:07pm 16.6 W 15 29 1019.1 - 0.0 - - - - - - -
27/06:00pm 16.7 W 12 20 1019.1 - 0.0 - - - - - - -
27/05:35pm 16.8 W 15 26 1018.6 - 0.0 - - - - - - -
27/05:30pm 16.9 W 16 26 1018.5 - 0.0 - - - - - - -
27/05:00pm 17.1 W 15 25 1018.1 - 0.0 - - - - - - -

Other Formats:

Comma delimited format used in spreadsheet applications
http://www.bom.gov.au/fwo/IDV60701/IDV60701.95918.axf

JavaScript Object Notation format (JSON) in row-major order
http://www.bom.gov.au/fwo/IDV60701/IDV60701.95918.json